sensor_id;sensor_type;location;lat;lon;timestamp;P1;durP1;ratioP1;P2;durP2;ratioP2
40745;SDS011;26454;51.164;4.488;2023-09-18T00:02:24;16.85;;;15.13;;
40745;SDS011;26454;51.164;4.488;2023-09-18T00:04:51;17.27;;;15.45;;
40745;SDS011;26454;51.164;4.488;2023-09-18T00:07:17;15.65;;;13.93;;
40745;SDS011;26454;51.164;4.488;2023-09-18T00:09:43;13.50;;;12.27;;
40745;SDS011;26454;51.164;4.488;2023-09-18T00:12:09;17.58;;;15.73;;
40745;SDS011;26454;51.164;4.488;2023-09-18T00:14:36;14.70;;;13.30;;
40745;SDS011;26454;51.164;4.488;2023-09-18T00:17:02;14.52;;;12.88;;
40745;SDS011;26454;51.164;4.488;2023-09-18T00:19:28;14.80;;;13.18;;
40745;SDS011;26454;51.164;4.488;2023-09-18T00:21:56;14.32;;;13.02;;
40745;SDS011;26454;51.164;4.488;2023-09-18T00:24:25;12.60;;;11.32;;
40745;SDS011;26454;51.164;4.488;2023-09-18T00:26:51;13.13;;;11.95;;
40745;SDS011;26454;51.164;4.488;2023-09-18T00:29:18;13.60;;;12.40;;
40745;SDS011;26454;51.164;4.488;2023-09-18T00:31:44;14.00;;;12.20;;
40745;SDS011;26454;51.164;4.488;2023-09-18T00:34:10;12.95;;;11.70;;
40745;SDS011;26454;51.164;4.488;2023-09-18T00:36:39;11.93;;;10.73;;
40745;SDS011;26454;51.164;4.488;2023-09-18T00:39:06;13.30;;;12.10;;
40745;SDS011;26454;51.164;4.488;2023-09-18T00:41:33;16.02;;;13.60;;
40745;SDS011;26454;51.164;4.488;2023-09-18T00:43:59;15.98;;;12.18;;
40745;SDS011;26454;51.164;4.488;2023-09-18T00:46:25;12.43;;;11.23;;
40745;SDS011;26454;51.164;4.488;2023-09-18T00:48:52;13.73;;;12.20;;
40745;SDS011;26454;51.164;4.488;2023-09-18T00:51:19;13.75;;;12.38;;
40745;SDS011;26454;51.164;4.488;2023-09-18T00:53:46;13.82;;;12.43;;
40745;SDS011;26454;51.164;4.488;2023-09-18T00:56:13;16.02;;;13.95;;
40745;SDS011;26454;51.164;4.488;2023-09-18T00:58:40;12.48;;;11.27;;
40745;SDS011;26454;51.164;4.488;2023-09-18T01:01:07;12.38;;;10.70;;
40745;SDS011;26454;51.164;4.488;2023-09-18T01:03:34;13.68;;;11.48;;
40745;SDS011;26454;51.164;4.488;2023-09-18T01:06:01;13.98;;;11.98;;
40745;SDS011;26454;51.164;4.488;2023-09-18T01:08:28;14.32;;;12.43;;
40745;SDS011;26454;51.164;4.488;2023-09-18T01:11:04;13.93;;;12.32;;
40745;SDS011;26454;51.164;4.488;2023-09-18T01:13:35;13.95;;;11.07;;
40745;SDS011;26454;51.164;4.488;2023-09-18T01:16:06;14.63;;;13.13;;
40745;SDS011;26454;51.164;4.488;2023-09-18T01:18:34;14.65;;;11.45;;
40745;SDS011;26454;51.164;4.488;2023-09-18T01:21:00;11.57;;;10.48;;
40745;SDS011;26454;51.164;4.488;2023-09-18T01:23:26;14.20;;;11.85;;
40745;SDS011;26454;51.164;4.488;2023-09-18T01:25:52;12.77;;;11.48;;
40745;SDS011;26454;51.164;4.488;2023-09-18T01:28:18;13.32;;;10.88;;
40745;SDS011;26454;51.164;4.488;2023-09-18T01:30:44;14.25;;;10.98;;
40745;SDS011;26454;51.164;4.488;2023-09-18T01:33:11;11.70;;;10.48;;
40745;SDS011;26454;51.164;4.488;2023-09-18T01:35:38;12.73;;;11.02;;
40745;SDS011;26454;51.164;4.488;2023-09-18T01:38:14;14.52;;;9.93;;
40745;SDS011;26454;51.164;4.488;2023-09-18T01:40:40;15.27;;;10.90;;
40745;SDS011;26454;51.164;4.488;2023-09-18T01:43:09;12.38;;;10.00;;
40745;SDS011;26454;51.164;4.488;2023-09-18T01:45:37;12.77;;;9.95;;
40745;SDS011;26454;51.164;4.488;2023-09-18T01:48:04;15.23;;;10.30;;
40745;SDS011;26454;51.164;4.488;2023-09-18T01:50:31;14.05;;;9.98;;
40745;SDS011;26454;51.164;4.488;2023-09-18T01:52:58;12.07;;;10.48;;
40745;SDS011;26454;51.164;4.488;2023-09-18T01:55:25;14.75;;;10.90;;
40745;SDS011;26454;51.164;4.488;2023-09-18T01:57:51;14.13;;;10.45;;
40745;SDS011;26454;51.164;4.488;2023-09-18T02:00:18;15.15;;;11.10;;
40745;SDS011;26454;51.164;4.488;2023-09-18T02:02:46;15.27;;;11.88;;
40745;SDS011;26454;51.164;4.488;2023-09-18T02:05:12;12.30;;;10.77;;
40745;SDS011;26454;51.164;4.488;2023-09-18T02:07:39;12.80;;;10.63;;
40745;SDS011;26454;51.164;4.488;2023-09-18T02:10:08;15.32;;;13.15;;
40745;SDS011;26454;51.164;4.488;2023-09-18T02:12:34;14.38;;;11.40;;
40745;SDS011;26454;51.164;4.488;2023-09-18T02:15:00;15.18;;;12.80;;
40745;SDS011;26454;51.164;4.488;2023-09-18T02:17:32;17.45;;;12.48;;
40745;SDS011;26454;51.164;4.488;2023-09-18T02:20:02;17.55;;;13.35;;
40745;SDS011;26454;51.164;4.488;2023-09-18T02:22:32;17.40;;;13.07;;
40745;SDS011;26454;51.164;4.488;2023-09-18T02:25:02;13.20;;;10.88;;
40745;SDS011;26454;51.164;4.488;2023-09-18T02:27:30;13.50;;;12.10;;
40745;SDS011;26454;51.164;4.488;2023-09-18T02:29:57;13.75;;;11.35;;
40745;SDS011;26454;51.164;4.488;2023-09-18T02:32:24;13.75;;;11.85;;
40745;SDS011;26454;51.164;4.488;2023-09-18T02:34:51;15.60;;;12.13;;
40745;SDS011;26454;51.164;4.488;2023-09-18T02:37:22;14.63;;;13.10;;
40745;SDS011;26454;51.164;4.488;2023-09-18T02:39:58;15.38;;;12.55;;
40745;SDS011;26454;51.164;4.488;2023-09-18T02:42:47;14.18;;;12.20;;
40745;SDS011;26454;51.164;4.488;2023-09-18T02:45:23;15.45;;;12.05;;
40745;SDS011;26454;51.164;4.488;2023-09-18T02:48:00;16.13;;;10.95;;
40745;SDS011;26454;51.164;4.488;2023-09-18T02:50:47;10.30;;;9.30;;
40745;SDS011;26454;51.164;4.488;2023-09-18T02:53:25;13.68;;;10.60;;
40745;SDS011;26454;51.164;4.488;2023-09-18T02:55:58;16.33;;;10.75;;
40745;SDS011;26454;51.164;4.488;2023-09-18T03:01:23;12.57;;;10.07;;
40745;SDS011;26454;51.164;4.488;2023-09-18T03:03:59;12.35;;;10.70;;
40745;SDS011;26454;51.164;4.488;2023-09-18T03:06:28;12.82;;;10.77;;
40745;SDS011;26454;51.164;4.488;2023-09-18T03:09:06;14.38;;;11.65;;
40745;SDS011;26454;51.164;4.488;2023-09-18T03:11:41;16.02;;;12.00;;
40745;SDS011;26454;51.164;4.488;2023-09-18T03:14:09;13.05;;;10.32;;
40745;SDS011;26454;51.164;4.488;2023-09-18T03:16:37;16.38;;;11.70;;
40745;SDS011;26454;51.164;4.488;2023-09-18T03:19:06;12.35;;;10.40;;
40745;SDS011;26454;51.164;4.488;2023-09-18T03:21:32;11.68;;;10.20;;
40745;SDS011;26454;51.164;4.488;2023-09-18T03:24:00;13.02;;;11.73;;
40745;SDS011;26454;51.164;4.488;2023-09-18T03:26:28;11.05;;;9.63;;
40745;SDS011;26454;51.164;4.488;2023-09-18T03:28:55;12.80;;;10.43;;
40745;SDS011;26454;51.164;4.488;2023-09-18T03:31:21;13.13;;;10.50;;
40745;SDS011;26454;51.164;4.488;2023-09-18T03:33:48;13.55;;;11.52;;
40745;SDS011;26454;51.164;4.488;2023-09-18T03:36:21;12.18;;;10.18;;
40745;SDS011;26454;51.164;4.488;2023-09-18T03:38:49;16.73;;;10.03;;
40745;SDS011;26454;51.164;4.488;2023-09-18T03:41:15;12.50;;;9.45;;
40745;SDS011;26454;51.164;4.488;2023-09-18T03:43:44;14.82;;;11.02;;
40745;SDS011;26454;51.164;4.488;2023-09-18T03:46:10;14.82;;;10.57;;
40745;SDS011;26454;51.164;4.488;2023-09-18T03:48:39;15.38;;;11.02;;
40745;SDS011;26454;51.164;4.488;2023-09-18T03:51:06;9.77;;;8.80;;
40745;SDS011;26454;51.164;4.488;2023-09-18T03:53:33;9.93;;;7.88;;
40745;SDS011;26454;51.164;4.488;2023-09-18T03:56:00;10.50;;;8.60;;
40745;SDS011;26454;51.164;4.488;2023-09-18T03:58:26;10.98;;;8.02;;
40745;SDS011;26454;51.164;4.488;2023-09-18T04:00:58;11.65;;;8.80;;
40745;SDS011;26454;51.164;4.488;2023-09-18T04:03:27;10.82;;;8.73;;
40745;SDS011;26454;51.164;4.488;2023-09-18T04:05:53;10.80;;;7.28;;
40745;SDS011;26454;51.164;4.488;2023-09-18T04:08:30;12.10;;;9.13;;
40745;SDS011;26454;51.164;4.488;2023-09-18T04:10:56;14.50;;;8.57;;
40745;SDS011;26454;51.164;4.488;2023-09-18T04:13:25;11.25;;;8.90;;
40745;SDS011;26454;51.164;4.488;2023-09-18T04:15:52;10.65;;;9.55;;
40745;SDS011;26454;51.164;4.488;2023-09-18T04:18:24;9.38;;;7.70;;
40745;SDS011;26454;51.164;4.488;2023-09-18T04:20:59;11.05;;;7.88;;
40745;SDS011;26454;51.164;4.488;2023-09-18T04:23:29;10.10;;;6.80;;
40745;SDS011;26454;51.164;4.488;2023-09-18T04:25:55;13.25;;;6.50;;
40745;SDS011;26454;51.164;4.488;2023-09-18T04:28:23;6.95;;;6.28;;
40745;SDS011;26454;51.164;4.488;2023-09-18T04:30:53;12.77;;;5.70;;
40745;SDS011;26454;51.164;4.488;2023-09-18T04:33:20;10.48;;;5.55;;
40745;SDS011;26454;51.164;4.488;2023-09-18T04:35:47;7.57;;;6.32;;
40745;SDS011;26454;51.164;4.488;2023-09-18T04:38:13;7.15;;;4.97;;
40745;SDS011;26454;51.164;4.488;2023-09-18T04:40:40;7.75;;;4.85;;
40745;SDS011;26454;51.164;4.488;2023-09-18T04:43:06;6.80;;;4.10;;
40745;SDS011;26454;51.164;4.488;2023-09-18T04:45:32;5.90;;;4.30;;
40745;SDS011;26454;51.164;4.488;2023-09-18T04:48:00;9.50;;;3.83;;
40745;SDS011;26454;51.164;4.488;2023-09-18T04:50:28;4.45;;;3.70;;
40745;SDS011;26454;51.164;4.488;2023-09-18T04:52:54;6.72;;;3.40;;
40745;SDS011;26454;51.164;4.488;2023-09-18T04:55:22;6.38;;;3.92;;
40745;SDS011;26454;51.164;4.488;2023-09-18T04:57:48;5.60;;;3.88;;
40745;SDS011;26454;51.164;4.488;2023-09-18T05:00:15;7.80;;;4.63;;
40745;SDS011;26454;51.164;4.488;2023-09-18T05:02:48;5.72;;;3.67;;
40745;SDS011;26454;51.164;4.488;2023-09-18T05:05:17;7.85;;;5.47;;
40745;SDS011;26454;51.164;4.488;2023-09-18T05:07:46;9.43;;;3.58;;
40745;SDS011;26454;51.164;4.488;2023-09-18T05:10:12;8.30;;;3.10;;
40745;SDS011;26454;51.164;4.488;2023-09-18T05:12:39;7.18;;;3.20;;
40745;SDS011;26454;51.164;4.488;2023-09-18T05:15:07;3.35;;;2.42;;
40745;SDS011;26454;51.164;4.488;2023-09-18T05:17:42;5.22;;;2.90;;
40745;SDS011;26454;51.164;4.488;2023-09-18T05:20:17;4.95;;;2.20;;
40745;SDS011;26454;51.164;4.488;2023-09-18T05:22:47;7.05;;;2.92;;
40745;SDS011;26454;51.164;4.488;2023-09-18T05:25:13;4.63;;;3.67;;
40745;SDS011;26454;51.164;4.488;2023-09-18T05:27:40;3.58;;;2.28;;
40745;SDS011;26454;51.164;4.488;2023-09-18T05:30:27;3.15;;;2.53;;
40745;SDS011;26454;51.164;4.488;2023-09-18T05:33:04;2.65;;;2.45;;
40745;SDS011;26454;51.164;4.488;2023-09-18T05:35:30;6.35;;;2.30;;
40745;SDS011;26454;51.164;4.488;2023-09-18T05:38:03;6.13;;;2.15;;
40745;SDS011;26454;51.164;4.488;2023-09-18T05:40:37;3.53;;;2.47;;
40745;SDS011;26454;51.164;4.488;2023-09-18T05:43:06;3.22;;;2.20;;
40745;SDS011;26454;51.164;4.488;2023-09-18T05:45:35;6.20;;;2.47;;
40745;SDS011;26454;51.164;4.488;2023-09-18T05:48:08;2.72;;;2.47;;
40745;SDS011;26454;51.164;4.488;2023-09-18T05:50:55;2.42;;;2.05;;
40745;SDS011;26454;51.164;4.488;2023-09-18T05:53:25;4.60;;;2.28;;
40745;SDS011;26454;51.164;4.488;2023-09-18T05:55:51;4.07;;;2.67;;
40745;SDS011;26454;51.164;4.488;2023-09-18T05:58:25;2.25;;;2.00;;
40745;SDS011;26454;51.164;4.488;2023-09-18T06:01:06;5.07;;;2.60;;
40745;SDS011;26454;51.164;4.488;2023-09-18T06:06:05;4.25;;;2.42;;
40745;SDS011;26454;51.164;4.488;2023-09-18T06:08:34;3.22;;;2.60;;
40745;SDS011;26454;51.164;4.488;2023-09-18T06:11:07;3.75;;;2.53;;
40745;SDS011;26454;51.164;4.488;2023-09-18T06:13:35;5.60;;;2.10;;
40745;SDS011;26454;51.164;4.488;2023-09-18T06:16:08;6.15;;;2.97;;
40745;SDS011;26454;51.164;4.488;2023-09-18T06:18:40;3.85;;;2.65;;
40745;SDS011;26454;51.164;4.488;2023-09-18T06:21:12;4.55;;;2.35;;
40745;SDS011;26454;51.164;4.488;2023-09-18T06:23:49;4.55;;;2.83;;
40745;SDS011;26454;51.164;4.488;2023-09-18T06:26:47;4.60;;;2.58;;
40745;SDS011;26454;51.164;4.488;2023-09-18T06:29:14;5.60;;;3.13;;
40745;SDS011;26454;51.164;4.488;2023-09-18T06:31:46;4.60;;;2.60;;
40745;SDS011;26454;51.164;4.488;2023-09-18T06:34:15;3.95;;;2.13;;
40745;SDS011;26454;51.164;4.488;2023-09-18T06:36:41;5.85;;;2.40;;
40745;SDS011;26454;51.164;4.488;2023-09-18T06:39:10;7.30;;;2.22;;
40745;SDS011;26454;51.164;4.488;2023-09-18T06:41:37;4.47;;;2.50;;
40745;SDS011;26454;51.164;4.488;2023-09-18T06:44:03;5.50;;;2.67;;
40745;SDS011;26454;51.164;4.488;2023-09-18T06:46:29;4.07;;;2.33;;
40745;SDS011;26454;51.164;4.488;2023-09-18T06:48:58;7.60;;;2.95;;
40745;SDS011;26454;51.164;4.488;2023-09-18T06:51:39;3.70;;;2.47;;
40745;SDS011;26454;51.164;4.488;2023-09-18T06:54:15;5.28;;;2.90;;
40745;SDS011;26454;51.164;4.488;2023-09-18T06:57:03;4.18;;;2.53;;
40745;SDS011;26454;51.164;4.488;2023-09-18T07:06:14;5.57;;;2.30;;
40745;SDS011;26454;51.164;4.488;2023-09-18T07:09:04;3.63;;;2.28;;
40745;SDS011;26454;51.164;4.488;2023-09-18T07:11:34;5.88;;;2.60;;
40745;SDS011;26454;51.164;4.488;2023-09-18T07:14:17;6.90;;;2.50;;
40745;SDS011;26454;51.164;4.488;2023-09-18T07:17:52;3.33;;;2.63;;
40745;SDS011;26454;51.164;4.488;2023-09-18T07:23:06;5.70;;;3.08;;
40745;SDS011;26454;51.164;4.488;2023-09-18T07:25:59;3.88;;;3.00;;
40745;SDS011;26454;51.164;4.488;2023-09-18T07:28:28;4.55;;;2.97;;
40745;SDS011;26454;51.164;4.488;2023-09-18T07:31:26;8.52;;;3.75;;
40745;SDS011;26454;51.164;4.488;2023-09-18T07:34:04;5.60;;;3.67;;
40745;SDS011;26454;51.164;4.488;2023-09-18T07:36:42;3.83;;;3.30;;
40745;SDS011;26454;51.164;4.488;2023-09-18T07:39:13;7.45;;;3.03;;
40745;SDS011;26454;51.164;4.488;2023-09-18T07:41:39;5.80;;;2.72;;
40745;SDS011;26454;51.164;4.488;2023-09-18T07:44:09;6.38;;;3.80;;
40745;SDS011;26454;51.164;4.488;2023-09-18T07:46:35;10.75;;;4.03;;
40745;SDS011;26454;51.164;4.488;2023-09-18T07:49:04;3.40;;;3.10;;
40745;SDS011;26454;51.164;4.488;2023-09-18T07:51:46;7.17;;;3.33;;
40745;SDS011;26454;51.164;4.488;2023-09-18T07:54:25;5.72;;;2.85;;
40745;SDS011;26454;51.164;4.488;2023-09-18T07:56:53;4.25;;;3.35;;
40745;SDS011;26454;51.164;4.488;2023-09-18T07:59:20;3.92;;;3.33;;
40745;SDS011;26454;51.164;4.488;2023-09-18T08:01:54;4.75;;;3.55;;
40745;SDS011;26454;51.164;4.488;2023-09-18T08:04:20;8.27;;;3.38;;
40745;SDS011;26454;51.164;4.488;2023-09-18T08:06:47;5.88;;;3.50;;
40745;SDS011;26454;51.164;4.488;2023-09-18T08:09:15;4.50;;;3.20;;
40745;SDS011;26454;51.164;4.488;2023-09-18T08:11:47;4.72;;;3.35;;
40745;SDS011;26454;51.164;4.488;2023-09-18T08:14:20;8.50;;;3.83;;
40745;SDS011;26454;51.164;4.488;2023-09-18T08:17:31;6.50;;;3.17;;
40745;SDS011;26454;51.164;4.488;2023-09-18T08:20:04;7.38;;;3.72;;
40745;SDS011;26454;51.164;4.488;2023-09-18T08:22:39;8.30;;;3.47;;
40745;SDS011;26454;51.164;4.488;2023-09-18T08:25:08;7.97;;;3.85;;
40745;SDS011;26454;51.164;4.488;2023-09-18T08:27:36;6.90;;;4.10;;
40745;SDS011;26454;51.164;4.488;2023-09-18T08:30:19;9.90;;;3.28;;
40745;SDS011;26454;51.164;4.488;2023-09-18T08:32:55;5.72;;;3.35;;
40745;SDS011;26454;51.164;4.488;2023-09-18T08:35:42;7.78;;;3.53;;
40745;SDS011;26454;51.164;4.488;2023-09-18T08:38:16;6.72;;;3.63;;
40745;SDS011;26454;51.164;4.488;2023-09-18T08:40:42;6.38;;;3.30;;
40745;SDS011;26454;51.164;4.488;2023-09-18T08:43:09;9.82;;;3.42;;
40745;SDS011;26454;51.164;4.488;2023-09-18T08:45:40;5.28;;;4.10;;
40745;SDS011;26454;51.164;4.488;2023-09-18T08:48:17;7.63;;;3.95;;
40745;SDS011;26454;51.164;4.488;2023-09-18T08:51:03;7.85;;;3.65;;
40745;SDS011;26454;51.164;4.488;2023-09-18T08:53:30;9.07;;;3.75;;
40745;SDS011;26454;51.164;4.488;2023-09-18T08:55:58;9.60;;;3.83;;
40745;SDS011;26454;51.164;4.488;2023-09-18T08:58:28;6.82;;;3.92;;
40745;SDS011;26454;51.164;4.488;2023-09-18T09:01:01;5.13;;;3.40;;
40745;SDS011;26454;51.164;4.488;2023-09-18T09:03:59;4.97;;;3.67;;
40745;SDS011;26454;51.164;4.488;2023-09-18T09:06:29;5.95;;;3.53;;
40745;SDS011;26454;51.164;4.488;2023-09-18T09:09:10;7.13;;;3.83;;
40745;SDS011;26454;51.164;4.488;2023-09-18T09:11:47;7.35;;;3.40;;
40745;SDS011;26454;51.164;4.488;2023-09-18T09:14:14;7.18;;;3.63;;
40745;SDS011;26454;51.164;4.488;2023-09-18T09:19:34;7.13;;;3.90;;
40745;SDS011;26454;51.164;4.488;2023-09-18T09:22:30;8.43;;;3.92;;
40745;SDS011;26454;51.164;4.488;2023-09-18T09:25:23;8.15;;;4.18;;
40745;SDS011;26454;51.164;4.488;2023-09-18T09:27:55;6.20;;;4.00;;
40745;SDS011;26454;51.164;4.488;2023-09-18T09:30:30;7.78;;;4.43;;
40745;SDS011;26454;51.164;4.488;2023-09-18T09:32:57;9.10;;;4.20;;
40745;SDS011;26454;51.164;4.488;2023-09-18T09:35:29;8.30;;;4.22;;
40745;SDS011;26454;51.164;4.488;2023-09-18T09:37:57;11.05;;;5.25;;
40745;SDS011;26454;51.164;4.488;2023-09-18T09:40:29;12.07;;;4.60;;
40745;SDS011;26454;51.164;4.488;2023-09-18T09:42:56;6.53;;;4.25;;
40745;SDS011;26454;51.164;4.488;2023-09-18T09:45:36;8.02;;;4.20;;
40745;SDS011;26454;51.164;4.488;2023-09-18T09:48:05;7.25;;;4.10;;
40745;SDS011;26454;51.164;4.488;2023-09-18T09:50:47;11.32;;;4.90;;
40745;SDS011;26454;51.164;4.488;2023-09-18T09:53:15;6.25;;;4.30;;
40745;SDS011;26454;51.164;4.488;2023-09-18T09:55:45;7.32;;;4.20;;
40745;SDS011;26454;51.164;4.488;2023-09-18T09:58:26;5.15;;;3.88;;
40745;SDS011;26454;51.164;4.488;2023-09-18T10:00:56;6.38;;;5.13;;
40745;SDS011;26454;51.164;4.488;2023-09-18T10:03:24;8.45;;;4.10;;
40745;SDS011;26454;51.164;4.488;2023-09-18T10:06:12;8.13;;;4.00;;
40745;SDS011;26454;51.164;4.488;2023-09-18T10:08:39;8.25;;;4.53;;
40745;SDS011;26454;51.164;4.488;2023-09-18T10:11:10;12.15;;;4.43;;
40745;SDS011;26454;51.164;4.488;2023-09-18T10:13:46;6.63;;;3.70;;
40745;SDS011;26454;51.164;4.488;2023-09-18T10:19:45;11.80;;;4.22;;
40745;SDS011;26454;51.164;4.488;2023-09-18T10:22:37;8.13;;;4.30;;
40745;SDS011;26454;51.164;4.488;2023-09-18T10:25:23;9.85;;;3.92;;
40745;SDS011;26454;51.164;4.488;2023-09-18T10:28:06;8.38;;;4.10;;
40745;SDS011;26454;51.164;4.488;2023-09-18T10:30:37;6.78;;;3.90;;
40745;SDS011;26454;51.164;4.488;2023-09-18T10:33:25;13.70;;;5.25;;
40745;SDS011;26454;51.164;4.488;2023-09-18T10:36:05;7.88;;;3.90;;
40745;SDS011;26454;51.164;4.488;2023-09-18T10:38:38;6.78;;;4.40;;
40745;SDS011;26454;51.164;4.488;2023-09-18T10:41:06;6.18;;;3.92;;
40745;SDS011;26454;51.164;4.488;2023-09-18T10:43:53;8.48;;;4.13;;
40745;SDS011;26454;51.164;4.488;2023-09-18T10:46:33;9.23;;;4.43;;
40745;SDS011;26454;51.164;4.488;2023-09-18T10:49:14;9.32;;;4.97;;
40745;SDS011;26454;51.164;4.488;2023-09-18T10:52:01;10.52;;;4.15;;
40745;SDS011;26454;51.164;4.488;2023-09-18T10:58:04;8.05;;;3.95;;
40745;SDS011;26454;51.164;4.488;2023-09-18T11:01:19;5.78;;;4.68;;
40745;SDS011;26454;51.164;4.488;2023-09-18T11:09:41;6.55;;;3.75;;
40745;SDS011;26454;51.164;4.488;2023-09-18T11:12:15;11.55;;;3.78;;
40745;SDS011;26454;51.164;4.488;2023-09-18T11:14:57;7.57;;;3.25;;
40745;SDS011;26454;51.164;4.488;2023-09-18T11:20:25;10.00;;;3.28;;
40745;SDS011;26454;51.164;4.488;2023-09-18T11:23:19;7.95;;;4.13;;
40745;SDS011;26454;51.164;4.488;2023-09-18T11:29:06;5.10;;;2.95;;
40745;SDS011;26454;51.164;4.488;2023-09-18T11:31:46;6.63;;;2.90;;
40745;SDS011;26454;51.164;4.488;2023-09-18T11:34:19;3.90;;;2.88;;
40745;SDS011;26454;51.164;4.488;2023-09-18T11:36:49;6.72;;;3.10;;
40745;SDS011;26454;51.164;4.488;2023-09-18T11:39:41;4.75;;;2.83;;
40745;SDS011;26454;51.164;4.488;2023-09-18T11:42:12;7.10;;;2.97;;
40745;SDS011;26454;51.164;4.488;2023-09-18T11:44:49;6.10;;;3.13;;
40745;SDS011;26454;51.164;4.488;2023-09-18T11:47:27;4.95;;;3.83;;
40745;SDS011;26454;51.164;4.488;2023-09-18T11:53:42;3.58;;;2.95;;
40745;SDS011;26454;51.164;4.488;2023-09-18T11:56:47;4.70;;;2.78;;
40745;SDS011;26454;51.164;4.488;2023-09-18T12:02:09;5.80;;;2.53;;
40745;SDS011;26454;51.164;4.488;2023-09-18T12:04:54;4.97;;;2.80;;
40745;SDS011;26454;51.164;4.488;2023-09-18T12:07:31;7.90;;;2.55;;
40745;SDS011;26454;51.164;4.488;2023-09-18T12:10:02;3.70;;;2.42;;
40745;SDS011;26454;51.164;4.488;2023-09-18T12:15:12;3.58;;;2.42;;
40745;SDS011;26454;51.164;4.488;2023-09-18T12:21:21;3.53;;;2.85;;
40745;SDS011;26454;51.164;4.488;2023-09-18T12:23:59;8.90;;;3.13;;
40745;SDS011;26454;51.164;4.488;2023-09-18T12:26:40;4.75;;;2.50;;
40745;SDS011;26454;51.164;4.488;2023-09-18T12:29:26;10.25;;;3.05;;
40745;SDS011;26454;51.164;4.488;2023-09-18T12:32:02;4.47;;;2.88;;
40745;SDS011;26454;51.164;4.488;2023-09-18T12:34:33;4.10;;;2.50;;
40745;SDS011;26454;51.164;4.488;2023-09-18T12:37:03;3.60;;;2.67;;
40745;SDS011;26454;51.164;4.488;2023-09-18T12:39:39;9.77;;;3.58;;
40745;SDS011;26454;51.164;4.488;2023-09-18T12:42:11;5.57;;;2.58;;
40745;SDS011;26454;51.164;4.488;2023-09-18T12:44:37;6.82;;;2.88;;
40745;SDS011;26454;51.164;4.488;2023-09-18T12:47:04;4.07;;;3.28;;
40745;SDS011;26454;51.164;4.488;2023-09-18T12:49:30;5.88;;;3.13;;
40745;SDS011;26454;51.164;4.488;2023-09-18T12:51:59;5.97;;;2.60;;
40745;SDS011;26454;51.164;4.488;2023-09-18T12:57:04;4.60;;;2.38;;
40745;SDS011;26454;51.164;4.488;2023-09-18T12:59:42;4.18;;;2.53;;
40745;SDS011;26454;51.164;4.488;2023-09-18T13:02:17;10.55;;;2.85;;
40745;SDS011;26454;51.164;4.488;2023-09-18T13:05:39;4.38;;;2.80;;
40745;SDS011;26454;51.164;4.488;2023-09-18T13:07:55;2.25;;;1.63;;
40745;SDS011;26454;51.164;4.488;2023-09-18T13:10:25;7.47;;;2.60;;
40745;SDS011;26454;51.164;4.488;2023-09-18T13:13:20;4.88;;;1.67;;
40745;SDS011;26454;51.164;4.488;2023-09-18T13:15:48;5.65;;;2.25;;
40745;SDS011;26454;51.164;4.488;2023-09-18T13:18:59;2.65;;;1.63;;
40745;SDS011;26454;51.164;4.488;2023-09-18T13:22:09;5.38;;;2.00;;
40745;SDS011;26454;51.164;4.488;2023-09-18T13:26:55;5.17;;;1.80;;
40745;SDS011;26454;51.164;4.488;2023-09-18T13:29:29;6.57;;;2.45;;
40745;SDS011;26454;51.164;4.488;2023-09-18T13:32:46;11.25;;;2.13;;
40745;SDS011;26454;51.164;4.488;2023-09-18T13:35:18;4.57;;;1.95;;
40745;SDS011;26454;51.164;4.488;2023-09-18T13:41:01;2.95;;;1.80;;
40745;SDS011;26454;51.164;4.488;2023-09-18T13:43:34;3.17;;;1.80;;
40745;SDS011;26454;51.164;4.488;2023-09-18T13:46:03;16.35;;;2.33;;
40745;SDS011;26454;51.164;4.488;2023-09-18T13:48:35;5.32;;;2.17;;
40745;SDS011;26454;51.164;4.488;2023-09-18T13:51:05;3.30;;;1.88;;
40745;SDS011;26454;51.164;4.488;2023-09-18T13:54:01;2.22;;;1.48;;
40745;SDS011;26454;51.164;4.488;2023-09-18T13:56:36;3.58;;;1.65;;
40745;SDS011;26454;51.164;4.488;2023-09-18T13:59:12;3.50;;;1.75;;
40745;SDS011;26454;51.164;4.488;2023-09-18T14:01:49;3.42;;;2.25;;
40745;SDS011;26454;51.164;4.488;2023-09-18T14:04:22;7.18;;;2.95;;
40745;SDS011;26454;51.164;4.488;2023-09-18T14:06:52;5.53;;;2.38;;
40745;SDS011;26454;51.164;4.488;2023-09-18T14:09:22;4.40;;;1.65;;
40745;SDS011;26454;51.164;4.488;2023-09-18T14:11:56;4.63;;;1.90;;
40745;SDS011;26454;51.164;4.488;2023-09-18T14:14:44;3.13;;;1.70;;
40745;SDS011;26454;51.164;4.488;2023-09-18T14:17:17;4.40;;;1.83;;
40745;SDS011;26454;51.164;4.488;2023-09-18T14:19:47;3.40;;;1.60;;
40745;SDS011;26454;51.164;4.488;2023-09-18T14:22:17;3.38;;;1.90;;
40745;SDS011;26454;51.164;4.488;2023-09-18T14:24:51;2.45;;;1.73;;
40745;SDS011;26454;51.164;4.488;2023-09-18T14:27:19;8.40;;;1.98;;
40745;SDS011;26454;51.164;4.488;2023-09-18T14:29:46;6.72;;;3.05;;
40745;SDS011;26454;51.164;4.488;2023-09-18T14:32:20;10.23;;;2.72;;
40745;SDS011;26454;51.164;4.488;2023-09-18T14:34:46;7.07;;;3.00;;
40745;SDS011;26454;51.164;4.488;2023-09-18T14:37:12;8.25;;;2.72;;
40745;SDS011;26454;51.164;4.488;2023-09-18T14:39:39;5.95;;;2.45;;
40745;SDS011;26454;51.164;4.488;2023-09-18T14:42:05;9.55;;;2.17;;
40745;SDS011;26454;51.164;4.488;2023-09-18T14:44:32;3.30;;;2.20;;
40745;SDS011;26454;51.164;4.488;2023-09-18T14:47:00;2.67;;;1.85;;
40745;SDS011;26454;51.164;4.488;2023-09-18T14:49:31;5.57;;;1.70;;
40745;SDS011;26454;51.164;4.488;2023-09-18T14:52:01;8.38;;;1.80;;
40745;SDS011;26454;51.164;4.488;2023-09-18T14:54:28;4.18;;;1.70;;
40745;SDS011;26454;51.164;4.488;2023-09-18T14:56:56;4.22;;;1.80;;
40745;SDS011;26454;51.164;4.488;2023-09-18T14:59:33;5.45;;;2.13;;
40745;SDS011;26454;51.164;4.488;2023-09-18T15:02:00;5.60;;;2.80;;
40745;SDS011;26454;51.164;4.488;2023-09-18T15:04:28;6.25;;;2.90;;
40745;SDS011;26454;51.164;4.488;2023-09-18T15:06:55;7.93;;;2.70;;
40745;SDS011;26454;51.164;4.488;2023-09-18T15:09:24;11.48;;;3.63;;
40745;SDS011;26454;51.164;4.488;2023-09-18T15:11:51;6.22;;;2.88;;
40745;SDS011;26454;51.164;4.488;2023-09-18T15:14:20;7.55;;;3.17;;
40745;SDS011;26454;51.164;4.488;2023-09-18T15:16:49;5.32;;;3.60;;
40745;SDS011;26454;51.164;4.488;2023-09-18T15:19:15;6.45;;;2.95;;
40745;SDS011;26454;51.164;4.488;2023-09-18T15:21:42;4.60;;;2.30;;
40745;SDS011;26454;51.164;4.488;2023-09-18T15:24:10;4.25;;;2.55;;
40745;SDS011;26454;51.164;4.488;2023-09-18T15:26:42;3.28;;;2.67;;
40745;SDS011;26454;51.164;4.488;2023-09-18T15:29:10;5.72;;;2.42;;
40745;SDS011;26454;51.164;4.488;2023-09-18T15:31:37;6.57;;;2.13;;
40745;SDS011;26454;51.164;4.488;2023-09-18T15:34:03;3.97;;;1.90;;
40745;SDS011;26454;51.164;4.488;2023-09-18T15:36:30;4.20;;;1.95;;
40745;SDS011;26454;51.164;4.488;2023-09-18T15:38:57;3.95;;;2.20;;
40745;SDS011;26454;51.164;4.488;2023-09-18T15:41:25;4.63;;;2.08;;
40745;SDS011;26454;51.164;4.488;2023-09-18T15:43:53;5.53;;;2.45;;
40745;SDS011;26454;51.164;4.488;2023-09-18T15:46:20;2.97;;;2.10;;
40745;SDS011;26454;51.164;4.488;2023-09-18T15:48:49;2.72;;;2.25;;
40745;SDS011;26454;51.164;4.488;2023-09-18T15:51:15;3.08;;;1.88;;
40745;SDS011;26454;51.164;4.488;2023-09-18T15:53:43;2.40;;;1.92;;
40745;SDS011;26454;51.164;4.488;2023-09-18T15:56:10;7.10;;;2.03;;
40745;SDS011;26454;51.164;4.488;2023-09-18T15:58:37;2.67;;;1.63;;
40745;SDS011;26454;51.164;4.488;2023-09-18T16:01:03;3.03;;;1.88;;
40745;SDS011;26454;51.164;4.488;2023-09-18T16:03:29;2.63;;;1.83;;
40745;SDS011;26454;51.164;4.488;2023-09-18T16:05:56;5.88;;;1.60;;
40745;SDS011;26454;51.164;4.488;2023-09-18T16:08:23;3.38;;;1.83;;
40745;SDS011;26454;51.164;4.488;2023-09-18T16:10:49;2.35;;;1.40;;